Briny Breezes, Florida
Current Conditions -  °F | °C
As of 12:50 PM on Monday 22 Dec 2014 (Local Time) from KBCT Reporting Station
Scattered Clouds Scattered Clouds  
Wind Chill: 81°   Ceiling: Unl
Heat Index: 83°   Visibility: 10mi
Dew Point: 68°   Wind: 14mph
Humidity: 65%   Direction: 180°S
Pressure: 29.99"   Gusts: NA
Location:  26.5249°N, 80.0659°W
Report Text: KBCT 221750Z 18012KT 10SM SCT023 27/20 A2999
Loading
Personal Weather Stations






























Interactive Weather Map New forecast layout! Learn more

10-Day Weather Forecast

Advertisements
Track Severe Weather on mobile